createdAt,value
2024-02-28T00:01:29.832Z,7.59
2024-02-28T00:06:32.868Z,7.58
2024-02-28T00:11:37.850Z,8.36
2024-02-28T00:16:43.864Z,8.42
2024-02-28T00:21:46.934Z,7.72
2024-02-28T00:26:49.935Z,7.95
2024-02-28T00:31:54.345Z,7.93
2024-02-28T00:36:57.447Z,7.55
2024-02-28T00:42:00.352Z,7.82
2024-02-28T00:47:04.720Z,7.59
2024-02-28T00:52:08.082Z,7.46
2024-02-28T00:57:11.101Z,7.70
2024-02-28T01:02:15.435Z,7.32
2024-02-28T01:07:18.343Z,7.89
2024-02-28T01:12:21.521Z,8.19
2024-02-28T01:17:28.204Z,8.29
2024-02-28T01:22:31.257Z,7.87
2024-02-28T01:27:34.463Z,7.28
2024-02-28T01:32:39.388Z,7.62
2024-02-28T01:37:42.329Z,7.26
2024-02-28T01:42:45.400Z,7.07
2024-02-28T01:47:50.135Z,6.80
2024-02-28T01:52:55.698Z,6.95
2024-02-28T01:57:58.770Z,7.70
2024-02-28T02:03:06.403Z,7.39
2024-02-28T02:08:11.948Z,7.25
2024-02-28T02:13:14.917Z,6.82
2024-02-28T02:18:19.378Z,7.09
2024-02-28T02:23:23.807Z,7.15
2024-02-28T02:28:26.748Z,6.62
2024-02-28T02:33:29.591Z,6.80
2024-02-28T02:38:36.376Z,7.06
2024-02-28T02:43:39.331Z,6.85
2024-02-28T02:48:42.352Z,6.91
2024-02-28T02:53:46.674Z,7.23
2024-02-28T02:58:49.776Z,6.87
2024-02-28T03:03:53.857Z,6.89
2024-02-28T03:08:58.246Z,7.03
2024-02-28T03:14:01.135Z,7.11
2024-02-28T03:19:04.952Z,7.25
2024-02-28T03:24:09.533Z,7.43
2024-02-28T03:29:14.585Z,7.94
2024-02-28T03:34:17.495Z,7.89
2024-02-28T03:39:24.453Z,7.97
2024-02-28T03:44:27.390Z,7.72
2024-02-28T03:49:30.299Z,7.36
2024-02-28T03:54:34.769Z,7.70
2024-02-28T03:59:39.807Z,8.02
2024-02-28T04:04:45.528Z,7.82
2024-02-28T04:09:50.133Z,7.35
2024-02-28T04:14:55.257Z,7.72
2024-02-28T04:19:59.097Z,7.63
2024-02-28T04:25:03.730Z,8.07
2024-02-28T04:30:07.967Z,7.64
2024-02-28T04:35:10.974Z,7.63
2024-02-28T04:40:16.596Z,8.05
2024-02-28T04:45:19.768Z,8.00
2024-02-28T04:50:22.746Z,7.73
2024-02-28T04:55:27.049Z,7.58
2024-02-28T05:00:29.998Z,7.27
2024-02-28T05:05:32.927Z,7.33
2024-02-28T05:10:37.193Z,6.87
2024-02-28T05:15:40.346Z,7.32
2024-02-28T05:20:43.224Z,7.14
2024-02-28T05:25:49.093Z,6.80
2024-02-28T05:30:52.198Z,6.91
2024-02-28T05:35:55.292Z,7.19
2024-02-28T05:41:00.732Z,7.35
2024-02-28T05:46:03.818Z,7.27
2024-02-28T05:51:07.205Z,7.14
2024-02-28T05:56:15.650Z,7.32
2024-02-28T06:01:19.867Z,7.28
2024-02-28T06:06:23.639Z,7.40
2024-02-28T06:11:27.947Z,7.33
2024-02-28T06:16:30.857Z,6.91
2024-02-28T06:21:33.819Z,7.31
2024-02-28T06:26:40.957Z,7.51
2024-02-28T06:31:45.361Z,7.55
2024-02-28T06:36:48.380Z,7.64
2024-02-28T06:41:58.865Z,7.43
2024-02-28T06:47:03.052Z,7.40
2024-02-28T06:52:06.851Z,7.51
2024-02-28T06:57:12.518Z,7.52
2024-02-28T07:02:15.496Z,7.31
2024-02-28T07:07:18.388Z,7.62
2024-02-28T07:12:22.832Z,7.64
2024-02-28T07:17:27.711Z,7.59
2024-02-28T07:22:31.775Z,7.84
2024-02-28T07:27:36.016Z,7.97
2024-02-28T07:32:38.959Z,8.10
2024-02-28T07:37:41.869Z,7.89
2024-02-28T07:42:46.362Z,8.07
2024-02-28T07:47:50.658Z,8.30
2024-02-28T07:52:56.103Z,8.27
2024-02-28T07:58:00.625Z,9.12
2024-02-28T08:03:03.572Z,9.39
2024-02-28T08:08:07.077Z,10.00
2024-02-28T08:13:12.626Z,9.76
2024-02-28T08:18:16.296Z,9.69
2024-02-28T08:23:20.423Z,10.14
2024-02-28T08:28:24.787Z,10.95
2024-02-28T08:33:28.042Z,10.66
2024-02-28T08:38:31.313Z,11.38
2024-02-28T08:43:35.881Z,11.16
2024-02-28T08:48:39.229Z,10.80
2024-02-28T08:53:42.275Z,11.18
2024-02-28T08:58:46.974Z,10.34
2024-02-28T09:03:49.924Z,11.18
2024-02-28T09:08:52.903Z,11.64
2024-02-28T09:13:57.133Z,12.78
2024-02-28T09:19:00.060Z,12.43
2024-02-28T09:24:03.231Z,12.14
2024-02-28T09:29:07.462Z,11.63
2024-02-28T09:34:11.226Z,11.18
2024-02-28T09:39:15.984Z,11.21
2024-02-28T09:44:22.343Z,11.91
2024-02-28T09:49:28.870Z,11.55
2024-02-28T09:54:31.953Z,12.71
2024-02-28T09:59:47.037Z,11.90
2024-02-28T10:04:58.655Z,11.99
2024-02-28T10:10:01.705Z,12.02
2024-02-28T10:15:07.285Z,12.01
2024-02-28T10:20:11.468Z,12.23
2024-02-28T10:25:14.404Z,11.32
2024-02-28T10:30:18.985Z,11.96
2024-02-28T10:35:26.289Z,11.75
2024-02-28T10:40:30.238Z,12.75
2024-02-28T10:50:46.664Z,13.16
2024-02-28T10:55:50.872Z,13.17
2024-02-28T11:00:55.485Z,13.10
2024-02-28T11:05:58.565Z,13.45
2024-02-28T11:11:05.329Z,12.72
2024-02-28T11:16:14.065Z,14.01
2024-02-28T11:21:17.678Z,14.02
2024-02-28T11:26:21.677Z,13.31
2024-02-28T11:31:25.993Z,13.20
2024-02-28T11:36:29.613Z,13.82
2024-02-28T11:41:33.032Z,12.90
2024-02-28T11:46:37.586Z,12.99
2024-02-28T11:51:43.097Z,13.19
2024-02-28T11:56:46.871Z,12.46
2024-02-28T12:01:52.796Z,12.55
2024-02-28T12:06:56.018Z,12.40
2024-02-28T12:12:02.634Z,11.99
2024-02-28T12:17:07.060Z,12.15
2024-02-28T12:22:10.125Z,12.04
2024-02-28T12:27:13.163Z,12.43
2024-02-28T12:32:19.015Z,12.72
2024-02-28T12:37:21.981Z,12.08
2024-02-28T12:42:24.919Z,12.11
2024-02-28T12:47:31.718Z,11.69
2024-02-28T12:52:34.708Z,12.03
2024-02-28T12:57:40.400Z,12.06
2024-02-28T13:02:45.021Z,12.66
2024-02-28T13:07:47.867Z,12.86
2024-02-28T13:12:54.388Z,12.92
2024-02-28T13:18:09.748Z,12.90
2024-02-28T13:23:27.548Z,12.10
2024-02-28T13:28:36.585Z,12.03
2024-02-28T13:33:42.801Z,12.11
2024-02-28T13:38:46.068Z,12.49
2024-02-28T13:44:53.766Z,12.56
2024-02-28T13:50:17.187Z,12.25
2024-02-28T13:55:20.960Z,12.13
2024-02-28T14:00:24.970Z,12.13
2024-02-28T14:05:29.535Z,11.95
2024-02-28T14:10:32.727Z,12.65
2024-02-28T14:15:37.601Z,12.79
2024-02-28T14:20:43.517Z,12.08
2024-02-28T14:25:46.834Z,12.66
2024-02-28T14:30:50.937Z,12.46
2024-02-28T14:35:55.556Z,11.95
2024-02-28T14:40:58.568Z,11.68
2024-02-28T14:46:03.001Z,11.60
2024-02-28T14:51:07.796Z,12.19
2024-02-28T14:56:10.933Z,11.93
2024-02-28T15:01:14.114Z,12.39
2024-02-28T15:06:19.209Z,12.72
2024-02-28T15:11:22.396Z,12.73
2024-02-28T15:16:25.804Z,12.86
2024-02-28T15:21:30.207Z,12.11
2024-02-28T15:26:42.219Z,12.06
2024-02-28T15:31:49.292Z,12.23
2024-02-28T15:36:53.555Z,12.22
2024-02-28T15:41:56.588Z,11.88
2024-02-28T15:46:59.455Z,11.97
2024-02-28T15:52:04.412Z,11.23
2024-02-28T15:57:10.875Z,11.58
2024-02-28T16:02:13.821Z,11.44
2024-02-28T16:07:18.276Z,11.17
2024-02-28T16:12:21.677Z,10.71
2024-02-28T16:17:26.912Z,10.51
2024-02-28T16:22:31.552Z,10.90
2024-02-28T16:27:35.879Z,10.54
2024-02-28T16:32:39.521Z,10.30
2024-02-28T16:37:46.749Z,10.38
2024-02-28T16:42:52.605Z,10.43
2024-02-28T16:47:55.576Z,10.96
2024-02-28T16:52:59.962Z,10.73
2024-02-28T16:58:05.003Z,11.11
2024-02-28T17:03:08.161Z,11.09
2024-02-28T17:08:12.540Z,11.15
2024-02-28T17:13:15.574Z,11.19
2024-02-28T17:18:18.590Z,11.15
2024-02-28T17:23:25.379Z,10.55
2024-02-28T17:28:28.950Z,10.34
2024-02-28T17:33:32.029Z,10.69
2024-02-28T17:38:36.995Z,10.63
2024-02-28T17:43:39.996Z,10.70
2024-02-28T17:48:44.633Z,10.81
2024-02-28T17:53:48.968Z,10.69
2024-02-28T17:58:51.848Z,10.49
2024-02-28T18:03:54.760Z,10.59
2024-02-28T18:08:59.477Z,10.58
2024-02-28T18:14:02.371Z,10.41
2024-02-28T18:19:05.778Z,10.04
2024-02-28T18:24:10.331Z,10.66
2024-02-28T18:29:13.425Z,10.31
2024-02-28T18:34:16.595Z,10.42
2024-02-28T18:39:20.943Z,10.55
2024-02-28T18:44:23.958Z,10.68
2024-02-28T18:49:27.211Z,10.29
2024-02-28T18:54:31.842Z,10.13
2024-02-28T18:59:36.031Z,9.79
2024-02-28T19:04:40.212Z,9.81
2024-02-28T19:09:44.946Z,10.14
2024-02-28T19:14:48.247Z,9.75
2024-02-28T19:20:08.275Z,10.04
2024-02-28T19:25:12.747Z,9.97
2024-02-28T19:30:15.827Z,10.28
2024-02-28T19:35:18.763Z,10.51
2024-02-28T19:40:23.082Z,10.09
2024-02-28T19:45:26.135Z,9.97
2024-02-28T19:50:29.165Z,9.92
2024-02-28T19:55:33.447Z,10.01
2024-02-28T20:00:37.036Z,9.86
2024-02-28T20:05:40.977Z,9.98
2024-02-28T20:10:45.678Z,9.72
2024-02-28T20:15:48.669Z,9.40
2024-02-28T20:20:51.853Z,9.77
2024-02-28T20:25:56.380Z,9.91
2024-02-28T20:30:59.410Z,9.58
2024-02-28T20:36:04.737Z,9.29
2024-02-28T20:41:09.056Z,9.08
2024-02-28T20:46:12.015Z,8.78
2024-02-28T20:51:15.017Z,8.99
2024-02-28T20:56:19.948Z,8.96
2024-02-28T21:01:25.327Z,8.96
2024-02-28T21:06:30.314Z,8.88
2024-02-28T21:11:37.356Z,8.80
2024-02-28T21:16:40.327Z,9.16
2024-02-28T21:21:43.502Z,9.03
2024-02-28T21:26:49.556Z,9.29
2024-02-28T21:31:52.562Z,9.29
2024-02-28T21:36:55.580Z,8.92
2024-02-28T21:42:00.094Z,8.93
2024-02-28T21:47:03.268Z,9.21
2024-02-28T21:52:06.322Z,8.59
2024-02-28T21:57:12.130Z,9.03
2024-02-28T22:02:15.091Z,9.04
2024-02-28T22:07:18.062Z,9.01
2024-02-28T22:12:22.387Z,8.98
2024-02-28T22:17:25.268Z,8.88
2024-02-28T22:22:29.957Z,8.83
2024-02-28T22:27:34.248Z,8.58
2024-02-28T22:32:37.166Z,8.54
2024-02-28T22:37:40.079Z,8.26
2024-02-28T22:42:44.684Z,8.79
2024-02-28T22:47:47.598Z,8.75
2024-02-28T22:52:50.510Z,8.96
2024-02-28T22:57:54.897Z,8.89
2024-02-28T23:03:00.042Z,8.75
2024-02-28T23:08:03.721Z,9.17
2024-02-28T23:13:08.538Z,8.72
2024-02-28T23:18:11.992Z,8.89
2024-02-28T23:23:14.991Z,8.63
2024-02-28T23:28:19.209Z,8.63
2024-02-28T23:33:22.343Z,8.72
2024-02-28T23:38:25.187Z,8.60
2024-02-28T23:43:29.406Z,8.42
2024-02-28T23:48:32.308Z,8.22
2024-02-28T23:53:35.235Z,8.38
2024-02-28T23:58:39.548Z,8.10
